首页
METAR-TAF:

METAR-TAF

机场 :

珀斯機場

珀斯, 澳大利亚

纬度: 31-56S, 经度: 115-57E, 海拔: 20米

当前天气观测

该预报发布于22分钟前的12:00 UTC
风速3节,风向西转西北
温度 12°C
湿度 82%
气压 1022 hPa
能见度10公里或以上
1500米以下无云,无积雨云

METAR: YPPH 191200Z 29003KT CAVOK 12/09 Q1022 NOSIG

时间: 20:22 (12:22 UTC)

预报

该预报发布于1小时和22分钟前的11:00 UTC
预报有效从19日的 12点(UTC)到 20日的 18点(UTC)
风速10节,风向西转西南
能见度10公里或以上
散云层高于4500英尺
从 19日的 1400点(UTC)
风速5节,风向北转东北
能见度10公里或以上
散云层高于3500英尺
从 20日的 0300点(UTC)
风速12节,风向西北
能见度10公里或以上
多云层高于4500英尺
从 20日的 1200点(UTC)
风速10节,风向西
能见度10公里或以上
多云层高于3000英尺
小阵雨

TAF: YPPH 191100Z 1912/2018 25010KT 9999 SCT045 FM191400 03005KT 9999 SCT035 FM200300 31012KT 9999 BKN045 FM201200 28010KT 9999 -SHRA BKN030

超过4000个机场的气象观测和天气预报(METAR&TAF报告)。

可查询的气象台以黄色和红色小点在地图上表示。

将鼠标移到小点上方,可查看气象台名称。

然后点击查看天气观测和预报。

如需切换地图:点击带黑十字的绿色按钮放大地图;点击带横线的绿色按钮缩小地图;或者点击绿色箭头查看邻近地区的地图。


METAR-TAF: